sensor_id;sensor_type;location;lat;lon;timestamp;P1;durP1;ratioP1;P2;durP2;ratioP2
3789;SDS011;1910;49.042;9.028;2023-05-07T00:01:27;2.00;;;1.60;;
3789;SDS011;1910;49.042;9.028;2023-05-07T00:03:53;2.27;;;1.80;;
3789;SDS011;1910;49.042;9.028;2023-05-07T00:06:19;2.43;;;1.60;;
3789;SDS011;1910;49.042;9.028;2023-05-07T00:08:44;2.03;;;1.57;;
3789;SDS011;1910;49.042;9.028;2023-05-07T00:11:10;3.47;;;1.70;;
3789;SDS011;1910;49.042;9.028;2023-05-07T00:13:36;2.27;;;1.10;;
3789;SDS011;1910;49.042;9.028;2023-05-07T00:16:02;2.77;;;1.77;;
3789;SDS011;1910;49.042;9.028;2023-05-07T00:18:28;1.50;;;1.40;;
3789;SDS011;1910;49.042;9.028;2023-05-07T00:20:54;1.80;;;1.70;;
3789;SDS011;1910;49.042;9.028;2023-05-07T00:23:21;2.30;;;1.63;;
3789;SDS011;1910;49.042;9.028;2023-05-07T00:25:46;2.27;;;1.70;;
3789;SDS011;1910;49.042;9.028;2023-05-07T00:28:12;1.80;;;1.20;;
3789;SDS011;1910;49.042;9.028;2023-05-07T00:30:38;2.03;;;1.40;;
3789;SDS011;1910;49.042;9.028;2023-05-07T00:33:04;1.30;;;1.03;;
3789;SDS011;1910;49.042;9.028;2023-05-07T00:35:29;3.10;;;2.40;;
3789;SDS011;1910;49.042;9.028;2023-05-07T00:37:55;2.80;;;2.03;;
3789;SDS011;1910;49.042;9.028;2023-05-07T00:40:21;1.83;;;1.40;;
3789;SDS011;1910;49.042;9.028;2023-05-07T00:42:47;4.43;;;1.50;;
3789;SDS011;1910;49.042;9.028;2023-05-07T00:45:13;3.22;;;2.28;;
3789;SDS011;1910;49.042;9.028;2023-05-07T00:47:40;3.53;;;3.10;;
3789;SDS011;1910;49.042;9.028;2023-05-07T00:50:06;3.53;;;2.00;;
3789;SDS011;1910;49.042;9.028;2023-05-07T00:52:32;3.72;;;2.25;;
3789;SDS011;1910;49.042;9.028;2023-05-07T00:55:00;2.47;;;1.97;;
3789;SDS011;1910;49.042;9.028;2023-05-07T00:57:29;2.40;;;1.65;;
3789;SDS011;1910;49.042;9.028;2023-05-07T01:00:05;2.00;;;1.63;;
3789;SDS011;1910;49.042;9.028;2023-05-07T01:02:33;2.25;;;2.05;;
3789;SDS011;1910;49.042;9.028;2023-05-07T01:04:59;3.87;;;2.33;;
3789;SDS011;1910;49.042;9.028;2023-05-07T01:07:25;4.40;;;2.40;;
3789;SDS011;1910;49.042;9.028;2023-05-07T01:09:52;1.92;;;1.60;;
3789;SDS011;1910;49.042;9.028;2023-05-07T01:12:18;1.60;;;1.50;;
3789;SDS011;1910;49.042;9.028;2023-05-07T01:14:44;1.60;;;1.50;;
3789;SDS011;1910;49.042;9.028;2023-05-07T01:17:10;2.10;;;1.70;;
3789;SDS011;1910;49.042;9.028;2023-05-07T01:19:35;2.77;;;2.10;;
3789;SDS011;1910;49.042;9.028;2023-05-07T01:22:03;3.27;;;1.90;;
3789;SDS011;1910;49.042;9.028;2023-05-07T01:24:33;3.83;;;2.30;;
3789;SDS011;1910;49.042;9.028;2023-05-07T01:27:00;4.85;;;2.50;;
3789;SDS011;1910;49.042;9.028;2023-05-07T01:29:27;1.93;;;1.47;;
3789;SDS011;1910;49.042;9.028;2023-05-07T01:31:53;1.85;;;1.60;;
3789;SDS011;1910;49.042;9.028;2023-05-07T01:34:19;2.70;;;1.77;;
3789;SDS011;1910;49.042;9.028;2023-05-07T01:36:47;2.47;;;1.63;;
3789;SDS011;1910;49.042;9.028;2023-05-07T01:39:13;2.55;;;1.70;;
3789;SDS011;1910;49.042;9.028;2023-05-07T01:41:40;2.50;;;1.88;;
3789;SDS011;1910;49.042;9.028;2023-05-07T01:44:06;3.70;;;2.40;;
3789;SDS011;1910;49.042;9.028;2023-05-07T01:46:33;2.67;;;1.88;;
3789;SDS011;1910;49.042;9.028;2023-05-07T01:49:00;3.78;;;1.80;;
3789;SDS011;1910;49.042;9.028;2023-05-07T01:51:26;3.95;;;2.33;;
3789;SDS011;1910;49.042;9.028;2023-05-07T01:53:52;4.13;;;1.90;;
3789;SDS011;1910;49.042;9.028;2023-05-07T01:56:18;1.40;;;1.13;;
3789;SDS011;1910;49.042;9.028;2023-05-07T01:58:45;2.30;;;1.40;;
3789;SDS011;1910;49.042;9.028;2023-05-07T02:01:12;2.30;;;1.67;;
3789;SDS011;1910;49.042;9.028;2023-05-07T02:03:38;4.18;;;1.85;;
3789;SDS011;1910;49.042;9.028;2023-05-07T02:06:04;1.93;;;1.40;;
3789;SDS011;1910;49.042;9.028;2023-05-07T02:08:30;3.07;;;2.27;;
3789;SDS011;1910;49.042;9.028;2023-05-07T02:10:56;3.40;;;1.77;;
3789;SDS011;1910;49.042;9.028;2023-05-07T02:13:21;3.83;;;1.60;;
3789;SDS011;1910;49.042;9.028;2023-05-07T02:15:49;2.15;;;1.60;;
3789;SDS011;1910;49.042;9.028;2023-05-07T02:18:16;3.10;;;2.37;;
3789;SDS011;1910;49.042;9.028;2023-05-07T02:20:42;2.40;;;1.90;;
3789;SDS011;1910;49.042;9.028;2023-05-07T02:23:07;2.10;;;1.77;;
3789;SDS011;1910;49.042;9.028;2023-05-07T02:25:33;1.77;;;1.15;;
3789;SDS011;1910;49.042;9.028;2023-05-07T02:27:59;2.20;;;1.87;;
3789;SDS011;1910;49.042;9.028;2023-05-07T02:30:25;2.27;;;1.40;;
3789;SDS011;1910;49.042;9.028;2023-05-07T02:32:51;2.35;;;2.15;;
3789;SDS011;1910;49.042;9.028;2023-05-07T02:35:17;2.10;;;1.70;;
3789;SDS011;1910;49.042;9.028;2023-05-07T02:37:42;2.13;;;1.87;;
3789;SDS011;1910;49.042;9.028;2023-05-07T02:40:08;2.67;;;1.63;;
3789;SDS011;1910;49.042;9.028;2023-05-07T02:42:34;1.92;;;1.70;;
3789;SDS011;1910;49.042;9.028;2023-05-07T02:45:00;2.17;;;1.50;;
3789;SDS011;1910;49.042;9.028;2023-05-07T02:47:26;2.50;;;1.50;;
3789;SDS011;1910;49.042;9.028;2023-05-07T02:49:53;1.80;;;1.50;;
3789;SDS011;1910;49.042;9.028;2023-05-07T02:52:19;2.00;;;1.80;;
3789;SDS011;1910;49.042;9.028;2023-05-07T02:54:45;3.05;;;1.80;;
3789;SDS011;1910;49.042;9.028;2023-05-07T02:57:10;1.80;;;1.63;;
3789;SDS011;1910;49.042;9.028;2023-05-07T02:59:36;1.57;;;1.47;;
3789;SDS011;1910;49.042;9.028;2023-05-07T03:02:02;2.00;;;1.55;;
3789;SDS011;1910;49.042;9.028;2023-05-07T03:04:28;2.30;;;1.60;;
3789;SDS011;1910;49.042;9.028;2023-05-07T03:06:54;2.93;;;1.90;;
3789;SDS011;1910;49.042;9.028;2023-05-07T03:09:20;4.80;;;2.50;;
3789;SDS011;1910;49.042;9.028;2023-05-07T03:11:46;4.87;;;1.97;;
3789;SDS011;1910;49.042;9.028;2023-05-07T03:14:12;3.37;;;2.50;;
3789;SDS011;1910;49.042;9.028;2023-05-07T03:16:38;2.10;;;1.85;;
3789;SDS011;1910;49.042;9.028;2023-05-07T03:19:04;2.15;;;1.88;;
3789;SDS011;1910;49.042;9.028;2023-05-07T03:21:30;3.63;;;2.40;;
3789;SDS011;1910;49.042;9.028;2023-05-07T03:23:58;2.30;;;1.48;;
3789;SDS011;1910;49.042;9.028;2023-05-07T03:26:24;1.97;;;1.57;;
3789;SDS011;1910;49.042;9.028;2023-05-07T03:28:50;1.63;;;1.52;;
3789;SDS011;1910;49.042;9.028;2023-05-07T03:31:16;3.15;;;2.33;;
3789;SDS011;1910;49.042;9.028;2023-05-07T03:36:20;5.70;;;3.33;;
3789;SDS011;1910;49.042;9.028;2023-05-07T03:38:46;4.47;;;1.85;;
3789;SDS011;1910;49.042;9.028;2023-05-07T03:41:12;4.95;;;3.90;;
3789;SDS011;1910;49.042;9.028;2023-05-07T03:43:38;4.90;;;3.73;;
3789;SDS011;1910;49.042;9.028;2023-05-07T03:46:03;4.87;;;3.20;;
3789;SDS011;1910;49.042;9.028;2023-05-07T03:48:29;4.20;;;2.67;;
3789;SDS011;1910;49.042;9.028;2023-05-07T03:50:55;6.53;;;4.10;;
3789;SDS011;1910;49.042;9.028;2023-05-07T03:53:22;4.13;;;3.25;;
3789;SDS011;1910;49.042;9.028;2023-05-07T03:55:48;6.60;;;4.83;;
3789;SDS011;1910;49.042;9.028;2023-05-07T03:58:14;6.82;;;3.83;;
3789;SDS011;1910;49.042;9.028;2023-05-07T04:00:40;3.67;;;3.30;;
3789;SDS011;1910;49.042;9.028;2023-05-07T04:03:06;5.67;;;2.80;;
3789;SDS011;1910;49.042;9.028;2023-05-07T04:05:32;4.30;;;2.70;;
3789;SDS011;1910;49.042;9.028;2023-05-07T04:07:58;4.37;;;3.23;;
3789;SDS011;1910;49.042;9.028;2023-05-07T04:10:24;2.83;;;2.42;;
3789;SDS011;1910;49.042;9.028;2023-05-07T04:12:50;4.53;;;2.90;;
3789;SDS011;1910;49.042;9.028;2023-05-07T04:15:16;3.90;;;3.50;;
3789;SDS011;1910;49.042;9.028;2023-05-07T04:17:41;3.80;;;3.10;;
3789;SDS011;1910;49.042;9.028;2023-05-07T04:20:10;2.83;;;2.23;;
3789;SDS011;1910;49.042;9.028;2023-05-07T04:22:41;2.47;;;1.73;;
3789;SDS011;1910;49.042;9.028;2023-05-07T04:25:07;2.20;;;2.00;;
3789;SDS011;1910;49.042;9.028;2023-05-07T04:27:36;1.92;;;1.65;;
3789;SDS011;1910;49.042;9.028;2023-05-07T04:30:02;2.57;;;2.37;;
3789;SDS011;1910;49.042;9.028;2023-05-07T04:32:29;3.03;;;2.22;;
3789;SDS011;1910;49.042;9.028;2023-05-07T04:34:55;4.07;;;2.42;;
3789;SDS011;1910;49.042;9.028;2023-05-07T04:37:21;3.72;;;3.03;;
3789;SDS011;1910;49.042;9.028;2023-05-07T04:39:47;2.90;;;2.20;;
3789;SDS011;1910;49.042;9.028;2023-05-07T04:42:14;2.72;;;2.00;;
3789;SDS011;1910;49.042;9.028;2023-05-07T04:44:40;3.28;;;2.40;;
3789;SDS011;1910;49.042;9.028;2023-05-07T04:47:06;4.37;;;2.30;;
3789;SDS011;1910;49.042;9.028;2023-05-07T04:49:32;2.33;;;2.13;;
3789;SDS011;1910;49.042;9.028;2023-05-07T04:51:58;3.50;;;2.57;;
3789;SDS011;1910;49.042;9.028;2023-05-07T04:54:24;2.33;;;1.90;;
3789;SDS011;1910;49.042;9.028;2023-05-07T04:56:50;3.60;;;2.40;;
3789;SDS011;1910;49.042;9.028;2023-05-07T04:59:16;2.93;;;2.47;;
3789;SDS011;1910;49.042;9.028;2023-05-07T05:01:42;3.23;;;2.43;;
3789;SDS011;1910;49.042;9.028;2023-05-07T05:04:08;2.60;;;2.10;;
3789;SDS011;1910;49.042;9.028;2023-05-07T05:06:35;2.83;;;2.20;;
3789;SDS011;1910;49.042;9.028;2023-05-07T05:09:00;2.90;;;2.60;;
3789;SDS011;1910;49.042;9.028;2023-05-07T05:11:26;4.33;;;3.93;;
3789;SDS011;1910;49.042;9.028;2023-05-07T05:13:52;2.93;;;2.10;;
3789;SDS011;1910;49.042;9.028;2023-05-07T05:16:18;2.33;;;2.13;;
3789;SDS011;1910;49.042;9.028;2023-05-07T05:18:44;7.23;;;3.90;;
3789;SDS011;1910;49.042;9.028;2023-05-07T05:21:10;3.90;;;3.50;;
3789;SDS011;1910;49.042;9.028;2023-05-07T05:23:36;6.33;;;2.63;;
3789;SDS011;1910;49.042;9.028;2023-05-07T05:26:02;2.90;;;2.70;;
3789;SDS011;1910;49.042;9.028;2023-05-07T05:28:28;3.23;;;2.90;;
3789;SDS011;1910;49.042;9.028;2023-05-07T05:30:54;2.90;;;2.70;;
3789;SDS011;1910;49.042;9.028;2023-05-07T05:33:19;14.33;;;3.73;;
3789;SDS011;1910;49.042;9.028;2023-05-07T05:35:45;4.03;;;3.27;;
3789;SDS011;1910;49.042;9.028;2023-05-07T05:38:11;4.80;;;3.20;;
3789;SDS011;1910;49.042;9.028;2023-05-07T05:40:37;5.53;;;3.87;;
3789;SDS011;1910;49.042;9.028;2023-05-07T05:43:03;4.40;;;2.73;;
3789;SDS011;1910;49.042;9.028;2023-05-07T05:45:29;17.10;;;3.27;;
3789;SDS011;1910;49.042;9.028;2023-05-07T05:47:56;3.77;;;3.43;;
3789;SDS011;1910;49.042;9.028;2023-05-07T05:50:22;4.10;;;2.67;;
3789;SDS011;1910;49.042;9.028;2023-05-07T05:52:48;7.23;;;4.13;;
3789;SDS011;1910;49.042;9.028;2023-05-07T05:55:13;3.33;;;3.00;;
3789;SDS011;1910;49.042;9.028;2023-05-07T05:57:39;4.20;;;3.80;;
3789;SDS011;1910;49.042;9.028;2023-05-07T06:00:06;4.23;;;3.33;;
3789;SDS011;1910;49.042;9.028;2023-05-07T06:02:32;5.03;;;3.40;;
3789;SDS011;1910;49.042;9.028;2023-05-07T06:04:58;4.97;;;2.83;;
3789;SDS011;1910;49.042;9.028;2023-05-07T06:07:25;5.77;;;2.63;;
3789;SDS011;1910;49.042;9.028;2023-05-07T06:09:51;3.00;;;2.73;;
3789;SDS011;1910;49.042;9.028;2023-05-07T06:12:17;3.90;;;3.03;;
3789;SDS011;1910;49.042;9.028;2023-05-07T06:14:43;4.00;;;2.70;;
3789;SDS011;1910;49.042;9.028;2023-05-07T06:17:09;5.07;;;2.80;;
3789;SDS011;1910;49.042;9.028;2023-05-07T06:19:35;3.40;;;2.87;;
3789;SDS011;1910;49.042;9.028;2023-05-07T06:22:01;3.03;;;2.70;;
3789;SDS011;1910;49.042;9.028;2023-05-07T06:24:27;3.83;;;2.77;;
3789;SDS011;1910;49.042;9.028;2023-05-07T06:26:53;3.20;;;2.30;;
3789;SDS011;1910;49.042;9.028;2023-05-07T06:29:19;3.80;;;3.43;;
3789;SDS011;1910;49.042;9.028;2023-05-07T06:31:45;3.80;;;3.40;;
3789;SDS011;1910;49.042;9.028;2023-05-07T06:34:11;5.23;;;4.93;;
3789;SDS011;1910;49.042;9.028;2023-05-07T06:36:40;6.40;;;5.00;;
3789;SDS011;1910;49.042;9.028;2023-05-07T06:39:06;7.47;;;5.93;;
3789;SDS011;1910;49.042;9.028;2023-05-07T06:41:32;5.90;;;5.60;;
3789;SDS011;1910;49.042;9.028;2023-05-07T06:44:00;7.03;;;6.63;;
3789;SDS011;1910;49.042;9.028;2023-05-07T06:46:26;5.80;;;5.50;;
3789;SDS011;1910;49.042;9.028;2023-05-07T06:48:52;6.10;;;5.77;;
3789;SDS011;1910;49.042;9.028;2023-05-07T06:51:18;6.40;;;6.10;;
3789;SDS011;1910;49.042;9.028;2023-05-07T06:53:44;6.40;;;6.10;;
3789;SDS011;1910;49.042;9.028;2023-05-07T06:56:10;6.83;;;6.43;;
3789;SDS011;1910;49.042;9.028;2023-05-07T06:58:37;6.30;;;6.00;;
3789;SDS011;1910;49.042;9.028;2023-05-07T07:01:03;6.20;;;5.90;;
3789;SDS011;1910;49.042;9.028;2023-05-07T07:03:28;6.40;;;6.03;;
3789;SDS011;1910;49.042;9.028;2023-05-07T07:05:54;6.23;;;5.57;;
3789;SDS011;1910;49.042;9.028;2023-05-07T07:08:21;6.37;;;5.80;;
3789;SDS011;1910;49.042;9.028;2023-05-07T07:10:47;6.00;;;5.50;;
3789;SDS011;1910;49.042;9.028;2023-05-07T07:13:13;4.93;;;4.63;;
3789;SDS011;1910;49.042;9.028;2023-05-07T07:15:39;5.20;;;4.90;;
3789;SDS011;1910;49.042;9.028;2023-05-07T07:18:05;5.20;;;4.90;;
3789;SDS011;1910;49.042;9.028;2023-05-07T07:20:32;5.13;;;4.83;;
3789;SDS011;1910;49.042;9.028;2023-05-07T07:22:57;5.83;;;5.53;;
3789;SDS011;1910;49.042;9.028;2023-05-07T07:25:24;6.10;;;5.63;;
3789;SDS011;1910;49.042;9.028;2023-05-07T07:27:50;5.73;;;5.43;;
3789;SDS011;1910;49.042;9.028;2023-05-07T07:30:16;5.90;;;5.60;;
3789;SDS011;1910;49.042;9.028;2023-05-07T07:32:43;5.73;;;5.37;;
3789;SDS011;1910;49.042;9.028;2023-05-07T07:35:09;5.70;;;5.40;;
3789;SDS011;1910;49.042;9.028;2023-05-07T07:37:35;6.07;;;5.77;;
3789;SDS011;1910;49.042;9.028;2023-05-07T07:40:01;6.00;;;5.50;;
3789;SDS011;1910;49.042;9.028;2023-05-07T07:42:28;5.57;;;5.30;;
3789;SDS011;1910;49.042;9.028;2023-05-07T07:44:54;5.10;;;4.70;;
3789;SDS011;1910;49.042;9.028;2023-05-07T07:47:22;5.50;;;5.10;;
3789;SDS011;1910;49.042;9.028;2023-05-07T07:49:47;5.53;;;4.70;;
3789;SDS011;1910;49.042;9.028;2023-05-07T07:52:13;4.63;;;4.33;;
3789;SDS011;1910;49.042;9.028;2023-05-07T07:54:39;4.43;;;4.23;;
3789;SDS011;1910;49.042;9.028;2023-05-07T07:57:05;4.87;;;4.40;;
3789;SDS011;1910;49.042;9.028;2023-05-07T07:59:31;3.97;;;3.70;;
3789;SDS011;1910;49.042;9.028;2023-05-07T08:01:57;4.20;;;4.00;;
3789;SDS011;1910;49.042;9.028;2023-05-07T08:04:23;5.27;;;4.77;;
3789;SDS011;1910;49.042;9.028;2023-05-07T08:06:49;4.50;;;4.20;;
3789;SDS011;1910;49.042;9.028;2023-05-07T08:09:15;3.80;;;3.60;;
3789;SDS011;1910;49.042;9.028;2023-05-07T08:11:41;4.17;;;3.97;;
3789;SDS011;1910;49.042;9.028;2023-05-07T08:14:07;4.40;;;4.10;;
3789;SDS011;1910;49.042;9.028;2023-05-07T08:16:33;3.80;;;3.57;;
3789;SDS011;1910;49.042;9.028;2023-05-07T08:18:59;4.70;;;4.20;;
3789;SDS011;1910;49.042;9.028;2023-05-07T08:21:25;4.73;;;4.33;;
3789;SDS011;1910;49.042;9.028;2023-05-07T08:23:51;5.30;;;4.00;;
3789;SDS011;1910;49.042;9.028;2023-05-07T08:26:17;4.20;;;3.90;;
3789;SDS011;1910;49.042;9.028;2023-05-07T08:28:51;3.97;;;3.67;;
3789;SDS011;1910;49.042;9.028;2023-05-07T08:31:16;3.77;;;3.53;;
3789;SDS011;1910;49.042;9.028;2023-05-07T08:33:42;3.97;;;3.73;;
3789;SDS011;1910;49.042;9.028;2023-05-07T08:36:11;3.67;;;3.37;;
3789;SDS011;1910;49.042;9.028;2023-05-07T08:38:37;4.83;;;4.30;;
3789;SDS011;1910;49.042;9.028;2023-05-07T08:41:05;7.40;;;4.03;;
3789;SDS011;1910;49.042;9.028;2023-05-07T08:43:34;3.93;;;3.63;;
3789;SDS011;1910;49.042;9.028;2023-05-07T08:46:02;6.30;;;4.20;;
3789;SDS011;1910;49.042;9.028;2023-05-07T08:48:29;4.60;;;4.30;;
3789;SDS011;1910;49.042;9.028;2023-05-07T08:50:58;6.57;;;4.73;;
3789;SDS011;1910;49.042;9.028;2023-05-07T08:53:25;4.63;;;4.27;;
3789;SDS011;1910;49.042;9.028;2023-05-07T08:55:51;3.43;;;3.13;;
3789;SDS011;1910;49.042;9.028;2023-05-07T08:58:17;3.40;;;3.10;;
3789;SDS011;1910;49.042;9.028;2023-05-07T09:00:43;3.70;;;3.40;;
3789;SDS011;1910;49.042;9.028;2023-05-07T09:03:09;4.03;;;3.73;;
3789;SDS011;1910;49.042;9.028;2023-05-07T09:05:37;4.10;;;3.63;;
3789;SDS011;1910;49.042;9.028;2023-05-07T09:08:03;3.20;;;3.00;;
3789;SDS011;1910;49.042;9.028;2023-05-07T09:10:33;3.70;;;3.13;;
3789;SDS011;1910;49.042;9.028;2023-05-07T09:12:59;3.50;;;3.20;;
3789;SDS011;1910;49.042;9.028;2023-05-07T09:15:26;3.47;;;3.17;;
3789;SDS011;1910;49.042;9.028;2023-05-07T09:17:52;2.60;;;2.40;;
3789;SDS011;1910;49.042;9.028;2023-05-07T09:20:19;5.20;;;2.40;;
3789;SDS011;1910;49.042;9.028;2023-05-07T09:22:45;3.00;;;2.80;;
3789;SDS011;1910;49.042;9.028;2023-05-07T09:25:10;5.57;;;3.50;;
3789;SDS011;1910;49.042;9.028;2023-05-07T09:27:37;2.60;;;2.40;;
3789;SDS011;1910;49.042;9.028;2023-05-07T09:30:06;4.13;;;3.43;;
3789;SDS011;1910;49.042;9.028;2023-05-07T09:32:36;3.43;;;3.13;;
3789;SDS011;1910;49.042;9.028;2023-05-07T09:35:05;3.30;;;3.00;;
3789;SDS011;1910;49.042;9.028;2023-05-07T09:37:31;3.17;;;2.87;;
3789;SDS011;1910;49.042;9.028;2023-05-07T09:39:57;5.23;;;4.00;;
3789;SDS011;1910;49.042;9.028;2023-05-07T09:42:24;3.80;;;3.50;;
3789;SDS011;1910;49.042;9.028;2023-05-07T09:44:51;3.50;;;3.20;;
3789;SDS011;1910;49.042;9.028;2023-05-07T09:47:19;4.33;;;3.87;;
3789;SDS011;1910;49.042;9.028;2023-05-07T09:49:50;5.83;;;3.93;;
3789;SDS011;1910;49.042;9.028;2023-05-07T09:52:22;4.60;;;3.30;;
3789;SDS011;1910;49.042;9.028;2023-05-07T09:54:48;5.97;;;3.73;;
3789;SDS011;1910;49.042;9.028;2023-05-07T09:57:16;3.60;;;3.30;;
3789;SDS011;1910;49.042;9.028;2023-05-07T09:59:42;4.17;;;3.63;;
3789;SDS011;1910;49.042;9.028;2023-05-07T10:02:09;3.50;;;3.17;;
3789;SDS011;1910;49.042;9.028;2023-05-07T10:04:35;5.27;;;3.03;;
3789;SDS011;1910;49.042;9.028;2023-05-07T10:07:01;4.07;;;3.67;;
3789;SDS011;1910;49.042;9.028;2023-05-07T10:09:29;4.27;;;3.70;;
3789;SDS011;1910;49.042;9.028;2023-05-07T10:11:55;4.03;;;3.73;;
3789;SDS011;1910;49.042;9.028;2023-05-07T10:14:22;3.90;;;3.60;;
3789;SDS011;1910;49.042;9.028;2023-05-07T10:16:49;4.63;;;4.23;;
3789;SDS011;1910;49.042;9.028;2023-05-07T10:19:15;3.87;;;3.63;;
3789;SDS011;1910;49.042;9.028;2023-05-07T10:24:19;4.13;;;3.70;;
3789;SDS011;1910;49.042;9.028;2023-05-07T10:26:47;3.40;;;3.13;;
3789;SDS011;1910;49.042;9.028;2023-05-07T10:34:42;3.73;;;2.90;;
3789;SDS011;1910;49.042;9.028;2023-05-07T10:37:10;2.90;;;2.70;;
3789;SDS011;1910;49.042;9.028;2023-05-07T10:39:37;3.57;;;2.67;;
3789;SDS011;1910;49.042;9.028;2023-05-07T10:42:09;3.40;;;2.40;;
3789;SDS011;1910;49.042;9.028;2023-05-07T10:44:36;3.50;;;2.73;;
3789;SDS011;1910;49.042;9.028;2023-05-07T10:52:14;3.43;;;2.80;;
3789;SDS011;1910;49.042;9.028;2023-05-07T10:54:45;4.47;;;2.83;;
3789;SDS011;1910;49.042;9.028;2023-05-07T10:57:32;6.50;;;3.40;;
3789;SDS011;1910;49.042;9.028;2023-05-07T11:00:01;3.60;;;3.30;;
3789;SDS011;1910;49.042;9.028;2023-05-07T11:05:24;3.73;;;2.97;;
3789;SDS011;1910;49.042;9.028;2023-05-07T11:07:54;3.33;;;2.60;;
3789;SDS011;1910;49.042;9.028;2023-05-07T11:10:22;4.03;;;2.80;;
3789;SDS011;1910;49.042;9.028;2023-05-07T11:12:49;4.50;;;3.00;;
3789;SDS011;1910;49.042;9.028;2023-05-07T11:15:15;3.63;;;3.33;;
3789;SDS011;1910;49.042;9.028;2023-05-07T11:17:59;3.10;;;2.80;;
3789;SDS011;1910;49.042;9.028;2023-05-07T11:26:08;3.03;;;2.70;;
3789;SDS011;1910;49.042;9.028;2023-05-07T11:28:42;2.20;;;2.00;;
3789;SDS011;1910;49.042;9.028;2023-05-07T11:31:09;2.17;;;1.97;;
3789;SDS011;1910;49.042;9.028;2023-05-07T11:33:35;2.97;;;2.60;;
3789;SDS011;1910;49.042;9.028;2023-05-07T11:36:02;4.37;;;2.40;;
3789;SDS011;1910;49.042;9.028;2023-05-07T11:38:35;2.70;;;2.50;;
3789;SDS011;1910;49.042;9.028;2023-05-07T11:41:02;3.17;;;2.87;;
3789;SDS011;1910;49.042;9.028;2023-05-07T11:43:30;2.23;;;2.03;;
3789;SDS011;1910;49.042;9.028;2023-05-07T11:46:04;3.13;;;2.30;;
3789;SDS011;1910;49.042;9.028;2023-05-07T11:48:34;3.00;;;2.60;;
3789;SDS011;1910;49.042;9.028;2023-05-07T11:51:00;2.67;;;2.40;;
3789;SDS011;1910;49.042;9.028;2023-05-07T11:53:34;2.60;;;2.40;;
3789;SDS011;1910;49.042;9.028;2023-05-07T11:56:05;2.40;;;2.17;;
3789;SDS011;1910;49.042;9.028;2023-05-07T11:58:32;2.63;;;2.43;;
3789;SDS011;1910;49.042;9.028;2023-05-07T12:00:58;2.43;;;2.20;;
3789;SDS011;1910;49.042;9.028;2023-05-07T12:03:24;2.93;;;2.73;;
3789;SDS011;1910;49.042;9.028;2023-05-07T12:05:50;3.13;;;2.60;;
3789;SDS011;1910;49.042;9.028;2023-05-07T12:08:16;2.53;;;2.27;;
3789;SDS011;1910;49.042;9.028;2023-05-07T12:10:43;3.27;;;2.97;;
3789;SDS011;1910;49.042;9.028;2023-05-07T12:13:19;2.60;;;2.37;;
3789;SDS011;1910;49.042;9.028;2023-05-07T12:15:46;2.10;;;1.97;;
3789;SDS011;1910;49.042;9.028;2023-05-07T12:18:12;3.83;;;2.10;;
3789;SDS011;1910;49.042;9.028;2023-05-07T12:20:39;4.10;;;2.73;;
3789;SDS011;1910;49.042;9.028;2023-05-07T12:23:05;3.87;;;2.40;;
3789;SDS011;1910;49.042;9.028;2023-05-07T12:25:34;4.30;;;1.90;;
3789;SDS011;1910;49.042;9.028;2023-05-07T12:28:04;3.27;;;2.90;;
3789;SDS011;1910;49.042;9.028;2023-05-07T12:30:31;3.00;;;2.80;;
3789;SDS011;1910;49.042;9.028;2023-05-07T12:32:57;4.50;;;2.10;;
3789;SDS011;1910;49.042;9.028;2023-05-07T12:35:27;2.50;;;2.03;;
3789;SDS011;1910;49.042;9.028;2023-05-07T12:38:01;2.73;;;2.53;;
3789;SDS011;1910;49.042;9.028;2023-05-07T12:40:42;2.93;;;2.60;;
3789;SDS011;1910;49.042;9.028;2023-05-07T12:43:19;2.20;;;2.00;;
3789;SDS011;1910;49.042;9.028;2023-05-07T12:46:05;6.53;;;2.80;;
3789;SDS011;1910;49.042;9.028;2023-05-07T12:48:32;1.83;;;1.70;;
3789;SDS011;1910;49.042;9.028;2023-05-07T12:50:59;2.40;;;2.20;;
3789;SDS011;1910;49.042;9.028;2023-05-07T12:53:33;2.10;;;2.00;;
3789;SDS011;1910;49.042;9.028;2023-05-07T12:56:16;2.33;;;2.13;;
3789;SDS011;1910;49.042;9.028;2023-05-07T12:59:16;7.57;;;2.87;;
3789;SDS011;1910;49.042;9.028;2023-05-07T13:01:43;2.23;;;2.03;;
3789;SDS011;1910;49.042;9.028;2023-05-07T13:04:10;1.87;;;1.77;;
3789;SDS011;1910;49.042;9.028;2023-05-07T13:06:35;2.10;;;1.90;;
3789;SDS011;1910;49.042;9.028;2023-05-07T13:09:01;2.50;;;2.30;;
3789;SDS011;1910;49.042;9.028;2023-05-07T13:11:27;2.23;;;1.83;;
3789;SDS011;1910;49.042;9.028;2023-05-07T13:13:53;2.20;;;1.70;;
3789;SDS011;1910;49.042;9.028;2023-05-07T13:16:19;2.33;;;2.13;;
3789;SDS011;1910;49.042;9.028;2023-05-07T13:18:45;2.33;;;1.80;;
3789;SDS011;1910;49.042;9.028;2023-05-07T13:21:10;2.00;;;1.80;;
3789;SDS011;1910;49.042;9.028;2023-05-07T13:23:38;2.57;;;2.10;;
3789;SDS011;1910;49.042;9.028;2023-05-07T13:26:03;2.60;;;2.30;;
3789;SDS011;1910;49.042;9.028;2023-05-07T13:28:29;2.53;;;2.33;;
3789;SDS011;1910;49.042;9.028;2023-05-07T13:30:55;3.57;;;2.80;;
3789;SDS011;1910;49.042;9.028;2023-05-07T13:33:21;2.33;;;2.10;;
3789;SDS011;1910;49.042;9.028;2023-05-07T13:35:46;3.73;;;2.33;;
3789;SDS011;1910;49.042;9.028;2023-05-07T13:38:12;3.63;;;2.50;;
3789;SDS011;1910;49.042;9.028;2023-05-07T13:40:37;2.77;;;2.30;;
3789;SDS011;1910;49.042;9.028;2023-05-07T13:43:05;2.57;;;2.37;;
3789;SDS011;1910;49.042;9.028;2023-05-07T13:45:30;2.07;;;1.87;;
3789;SDS011;1910;49.042;9.028;2023-05-07T13:47:56;9.40;;;2.20;;
3789;SDS011;1910;49.042;9.028;2023-05-07T13:50:22;3.73;;;2.70;;
3789;SDS011;1910;49.042;9.028;2023-05-07T13:52:48;8.13;;;2.57;;
3789;SDS011;1910;49.042;9.028;2023-05-07T13:55:20;5.00;;;3.20;;
3789;SDS011;1910;49.042;9.028;2023-05-07T13:57:46;5.03;;;2.90;;
3789;SDS011;1910;49.042;9.028;2023-05-07T14:00:13;8.67;;;4.47;;
3789;SDS011;1910;49.042;9.028;2023-05-07T14:02:39;2.73;;;2.40;;
3789;SDS011;1910;49.042;9.028;2023-05-07T14:05:05;5.40;;;2.63;;
3789;SDS011;1910;49.042;9.028;2023-05-07T14:07:31;5.27;;;3.50;;
3789;SDS011;1910;49.042;9.028;2023-05-07T14:09:57;4.63;;;2.57;;
3789;SDS011;1910;49.042;9.028;2023-05-07T14:12:23;3.47;;;2.80;;
3789;SDS011;1910;49.042;9.028;2023-05-07T14:14:49;4.43;;;2.57;;
3789;SDS011;1910;49.042;9.028;2023-05-07T14:17:15;8.37;;;3.70;;
3789;SDS011;1910;49.042;9.028;2023-05-07T14:19:42;4.93;;;3.60;;
3789;SDS011;1910;49.042;9.028;2023-05-07T14:22:08;2.97;;;2.77;;
3789;SDS011;1910;49.042;9.028;2023-05-07T14:24:33;4.63;;;2.60;;
3789;SDS011;1910;49.042;9.028;2023-05-07T14:26:59;3.43;;;2.30;;
3789;SDS011;1910;49.042;9.028;2023-05-07T14:29:25;4.73;;;2.77;;
3789;SDS011;1910;49.042;9.028;2023-05-07T14:31:50;3.03;;;2.17;;
3789;SDS011;1910;49.042;9.028;2023-05-07T14:34:16;4.47;;;2.20;;
3789;SDS011;1910;49.042;9.028;2023-05-07T14:36:42;3.07;;;1.80;;
3789;SDS011;1910;49.042;9.028;2023-05-07T14:39:09;2.20;;;1.93;;
3789;SDS011;1910;49.042;9.028;2023-05-07T14:41:35;3.87;;;2.83;;
3789;SDS011;1910;49.042;9.028;2023-05-07T14:44:00;3.43;;;2.60;;
3789;SDS011;1910;49.042;9.028;2023-05-07T14:46:29;2.23;;;1.60;;
3789;SDS011;1910;49.042;9.028;2023-05-07T14:48:54;1.87;;;1.77;;
3789;SDS011;1910;49.042;9.028;2023-05-07T14:51:20;3.30;;;2.13;;
3789;SDS011;1910;49.042;9.028;2023-05-07T14:53:46;3.23;;;2.37;;
3789;SDS011;1910;49.042;9.028;2023-05-07T14:56:12;4.23;;;2.10;;
3789;SDS011;1910;49.042;9.028;2023-05-07T14:58:39;3.33;;;1.93;;
3789;SDS011;1910;49.042;9.028;2023-05-07T15:01:04;4.20;;;2.20;;
3789;SDS011;1910;49.042;9.028;2023-05-07T15:03:30;3.13;;;2.33;;
3789;SDS011;1910;49.042;9.028;2023-05-07T15:05:56;2.67;;;2.40;;
3789;SDS011;1910;49.042;9.028;2023-05-07T15:08:22;2.47;;;1.90;;
3789;SDS011;1910;49.042;9.028;2023-05-07T15:10:48;3.77;;;2.10;;
3789;SDS011;1910;49.042;9.028;2023-05-07T15:13:14;4.40;;;1.87;;
3789;SDS011;1910;49.042;9.028;2023-05-07T15:15:40;2.43;;;2.20;;
3789;SDS011;1910;49.042;9.028;2023-05-07T15:18:07;2.93;;;2.40;;
3789;SDS011;1910;49.042;9.028;2023-05-07T15:20:33;3.80;;;2.33;;
3789;SDS011;1910;49.042;9.028;2023-05-07T15:22:59;3.67;;;2.00;;
3789;SDS011;1910;49.042;9.028;2023-05-07T15:25:25;4.17;;;2.67;;
3789;SDS011;1910;49.042;9.028;2023-05-07T15:27:51;2.60;;;2.17;;
3789;SDS011;1910;49.042;9.028;2023-05-07T15:30:17;2.40;;;1.90;;
3789;SDS011;1910;49.042;9.028;2023-05-07T15:32:44;4.40;;;2.40;;
3789;SDS011;1910;49.042;9.028;2023-05-07T15:35:10;2.73;;;2.40;;
3789;SDS011;1910;49.042;9.028;2023-05-07T15:37:36;3.90;;;2.40;;